createdAt,value
2019-02-15T00:02:12.346Z,69.00
2019-02-15T00:04:40.773Z,69.40
2019-02-15T00:07:09.219Z,69.90
2019-02-15T00:09:37.663Z,70.00
2019-02-15T00:12:06.119Z,70.30
2019-02-15T00:14:45.619Z,70.20
2019-02-15T00:17:15.698Z,69.80
2019-02-15T00:19:45.835Z,69.30
2019-02-15T00:22:14.294Z,69.60
2019-02-15T00:24:42.780Z,69.60
2019-02-15T00:27:11.399Z,69.30
2019-02-15T00:29:39.814Z,68.70
2019-02-15T00:32:08.281Z,68.90
2019-02-15T00:34:36.708Z,69.50
2019-02-15T00:37:05.159Z,70.10
2019-02-15T00:39:33.594Z,70.70
2019-02-15T00:42:02.038Z,71.20
2019-02-15T00:44:30.477Z,70.90
2019-02-15T00:47:00.563Z,70.10
2019-02-15T00:49:30.634Z,69.80
2019-02-15T00:52:03.492Z,70.30
2019-02-15T00:54:50.186Z,70.60
2019-02-15T00:57:29.239Z,70.40
2019-02-15T01:00:08.362Z,70.30
2019-02-15T01:02:41.605Z,70.30
2019-02-15T01:05:17.847Z,70.50
2019-02-15T01:07:47.946Z,70.90
2019-02-15T01:10:18.017Z,71.00
2019-02-15T01:12:57.179Z,71.30
2019-02-15T01:15:25.668Z,71.70
2019-02-15T01:17:54.118Z,72.00
2019-02-15T01:20:22.554Z,72.30
2019-02-15T01:22:50.975Z,72.80
2019-02-15T01:25:19.423Z,73.00
2019-02-15T01:27:49.488Z,72.70
2019-02-15T01:30:25.397Z,72.30
2019-02-15T01:32:55.456Z,71.70
2019-02-15T01:35:25.547Z,71.90
2019-02-15T01:38:11.816Z,72.00
2019-02-15T01:40:53.823Z,72.00
2019-02-15T01:43:26.550Z,71.70
2019-02-15T01:45:59.410Z,71.70
2019-02-15T01:48:27.850Z,71.90
2019-02-15T01:50:56.313Z,71.50
2019-02-15T01:53:24.743Z,71.70
2019-02-15T01:55:53.188Z,71.70
2019-02-15T01:58:21.623Z,71.20
2019-02-15T02:00:50.077Z,70.70
2019-02-15T02:03:18.502Z,71.40
2019-02-15T02:05:47.023Z,72.00
2019-02-15T02:08:17.086Z,72.20
2019-02-15T02:10:45.599Z,71.50
2019-02-15T02:13:14.038Z,71.80
2019-02-15T02:15:42.506Z,72.00
2019-02-15T02:18:10.946Z,72.20
2019-02-15T02:20:39.374Z,72.00
2019-02-15T02:23:07.827Z,71.70
2019-02-15T02:25:36.447Z,71.40
2019-02-15T02:28:04.886Z,72.00
2019-02-15T02:30:33.397Z,72.10
2019-02-15T02:33:01.848Z,71.90
2019-02-15T02:35:30.264Z,72.20
2019-02-15T02:37:58.718Z,72.10
2019-02-15T02:40:27.163Z,72.00
2019-02-15T02:42:55.669Z,71.50
2019-02-15T02:45:24.110Z,71.30
2019-02-15T02:47:52.571Z,71.40
2019-02-15T02:50:20.994Z,71.50
2019-02-15T02:52:49.444Z,71.60
2019-02-15T02:55:17.899Z,71.40
2019-02-15T02:57:46.344Z,71.80
2019-02-15T03:00:14.841Z,72.40
2019-02-15T03:02:43.351Z,72.20
2019-02-15T03:05:11.775Z,72.30
2019-02-15T03:07:41.758Z,72.50
2019-02-15T03:10:10.336Z,72.50
2019-02-15T03:12:38.807Z,71.70
2019-02-15T03:15:08.044Z,71.70
2019-02-15T03:17:36.490Z,71.80
2019-02-15T03:20:06.776Z,71.60
2019-02-15T03:22:35.239Z,71.60
2019-02-15T03:25:03.834Z,71.80
2019-02-15T03:27:32.284Z,71.80
2019-02-15T03:30:00.761Z,71.80
2019-02-15T03:32:29.245Z,71.70
2019-02-15T03:34:57.704Z,71.50
2019-02-15T03:37:27.776Z,71.90
2019-02-15T03:39:57.894Z,71.90
2019-02-15T03:42:26.335Z,72.10
2019-02-15T03:44:54.791Z,72.10
2019-02-15T03:47:24.218Z,72.50
2019-02-15T03:49:52.669Z,72.90
2019-02-15T03:52:21.091Z,72.60
2019-02-15T03:54:49.547Z,72.80
2019-02-15T03:57:18.026Z,72.60
2019-02-15T03:59:46.534Z,72.20
2019-02-15T04:02:15.027Z,72.00
2019-02-15T04:04:43.487Z,72.10
2019-02-15T04:07:11.911Z,72.00
2019-02-15T04:09:40.349Z,72.00
2019-02-15T04:12:08.795Z,71.60
2019-02-15T04:14:37.254Z,71.50
2019-02-15T04:17:05.677Z,71.70
2019-02-15T04:19:34.094Z,71.90
2019-02-15T04:22:02.544Z,71.90
2019-02-15T04:24:30.980Z,72.00
2019-02-15T04:26:59.709Z,71.80
2019-02-15T04:29:28.127Z,71.80
2019-02-15T04:31:56.571Z,71.60
2019-02-15T04:34:24.997Z,71.90
2019-02-15T04:36:53.432Z,71.80
2019-02-15T04:39:21.858Z,71.60
2019-02-15T04:41:50.323Z,71.30
2019-02-15T04:44:18.812Z,71.20
2019-02-15T04:46:47.331Z,70.80
2019-02-15T04:49:15.762Z,70.60
2019-02-15T04:51:44.206Z,70.70
2019-02-15T04:54:12.631Z,71.20
2019-02-15T04:56:41.071Z,71.20
2019-02-15T04:59:09.506Z,71.70
2019-02-15T05:01:37.951Z,72.10
2019-02-15T05:04:06.372Z,72.30
2019-02-15T05:06:34.815Z,72.30
2019-02-15T05:09:04.417Z,72.10
2019-02-15T05:11:32.856Z,71.90
2019-02-15T05:14:01.400Z,71.30
2019-02-15T05:16:29.838Z,71.20
2019-02-15T05:18:58.282Z,70.90
2019-02-15T05:21:26.701Z,70.90
2019-02-15T05:23:55.152Z,71.00
2019-02-15T05:26:23.575Z,71.10
2019-02-15T05:28:52.025Z,71.70
2019-02-15T05:31:20.442Z,71.70
2019-02-15T05:33:48.899Z,72.30
2019-02-15T05:36:17.323Z,72.60
2019-02-15T05:38:45.770Z,72.50
2019-02-15T05:41:14.383Z,72.20
2019-02-15T05:43:42.832Z,72.10
2019-02-15T05:46:11.248Z,71.80
2019-02-15T05:48:39.701Z,71.50
2019-02-15T05:51:08.125Z,71.40
2019-02-15T05:53:36.564Z,71.40
2019-02-15T05:56:05.005Z,71.60
2019-02-15T05:58:33.468Z,71.90
2019-02-15T06:01:01.967Z,71.80
2019-02-15T06:03:30.419Z,72.00
2019-02-15T06:05:59.779Z,71.70
2019-02-15T06:08:28.229Z,71.60
2019-02-15T06:11:06.678Z,71.50
2019-02-15T06:13:26.828Z,71.30
2019-02-15T06:15:55.250Z,71.20
2019-02-15T06:18:23.683Z,71.70
2019-02-15T06:20:52.130Z,71.90
2019-02-15T06:23:20.579Z,72.20
2019-02-15T06:25:49.035Z,72.30
2019-02-15T06:28:17.466Z,72.30
2019-02-15T06:30:45.924Z,72.40
2019-02-15T06:33:14.416Z,72.50
2019-02-15T06:35:42.871Z,72.70
2019-02-15T06:38:11.314Z,72.90
2019-02-15T06:40:39.789Z,73.30
2019-02-15T06:43:08.215Z,73.30
2019-02-15T06:45:36.675Z,72.80
2019-02-15T06:48:05.098Z,72.70
2019-02-15T06:50:33.572Z,73.00
2019-02-15T06:53:02.006Z,72.90
2019-02-15T06:55:30.464Z,73.20
2019-02-15T06:57:58.983Z,73.00
2019-02-15T07:00:45.648Z,72.90
2019-02-15T07:03:25.018Z,72.50
2019-02-15T07:05:53.453Z,72.50
2019-02-15T07:08:21.883Z,72.60
2019-02-15T07:10:50.335Z,73.20
2019-02-15T07:13:18.757Z,73.70
2019-02-15T07:15:47.188Z,73.70
2019-02-15T07:18:15.719Z,74.00
2019-02-15T07:20:44.173Z,74.60
2019-02-15T07:23:12.638Z,74.90
2019-02-15T07:25:41.075Z,75.30
2019-02-15T07:28:09.509Z,75.90
2019-02-15T07:30:37.944Z,76.60
2019-02-15T07:33:06.464Z,76.90
2019-02-15T07:35:34.991Z,77.60
2019-02-15T07:38:03.459Z,78.20
2019-02-15T07:40:31.880Z,79.10
2019-02-15T07:43:00.477Z,79.60
2019-02-15T07:45:28.907Z,80.00
2019-02-15T07:47:58.680Z,80.70
2019-02-15T07:50:27.278Z,80.90
2019-02-15T07:52:55.723Z,81.20
2019-02-15T07:55:24.337Z,82.00
2019-02-15T07:57:52.787Z,82.10
2019-02-15T08:00:21.314Z,82.90
2019-02-15T08:02:49.774Z,83.00
2019-02-15T08:05:18.268Z,83.20
2019-02-15T08:07:46.724Z,83.40
2019-02-15T08:10:15.159Z,84.20
2019-02-15T08:12:43.594Z,84.00
2019-02-15T08:15:12.203Z,84.20
2019-02-15T08:17:40.675Z,84.50
2019-02-15T08:20:11.142Z,84.40
2019-02-15T08:22:39.573Z,84.20
2019-02-15T08:25:09.156Z,83.90
2019-02-15T08:27:37.589Z,83.40
2019-02-15T08:30:09.101Z,83.00
2019-02-15T08:32:37.526Z,82.60
2019-02-15T08:35:08.326Z,82.00
2019-02-15T08:37:36.771Z,81.70
2019-02-15T08:40:08.167Z,80.10
2019-02-15T08:42:36.666Z,78.90
2019-02-15T08:45:08.367Z,77.40
2019-02-15T08:47:36.882Z,75.80
2019-02-15T08:50:07.983Z,70.20
2019-02-15T08:52:36.398Z,67.40
2019-02-15T08:55:07.504Z,64.80
2019-02-15T08:57:35.990Z,62.80
2019-02-15T09:00:06.538Z,61.50
2019-02-15T09:02:34.979Z,60.80
2019-02-15T09:05:03.505Z,60.50
2019-02-15T09:07:32.036Z,60.50
2019-02-15T09:10:00.487Z,59.90
2019-02-15T09:12:28.907Z,57.40
2019-02-15T09:14:57.345Z,59.00
2019-02-15T09:17:27.296Z,57.60
2019-02-15T09:19:56.090Z,58.40
2019-02-15T09:22:24.535Z,56.80
2019-02-15T09:24:53.039Z,57.20
2019-02-15T09:27:25.616Z,57.60
2019-02-15T09:29:54.046Z,58.10
2019-02-15T09:32:22.505Z,57.40
2019-02-15T09:34:50.930Z,57.70
2019-02-15T09:37:19.391Z,57.90
2019-02-15T09:39:47.805Z,22.10
2019-02-15T09:42:17.792Z,21.40
2019-02-15T09:44:46.232Z,22.40
2019-02-15T09:47:14.680Z,22.60
2019-02-15T09:49:44.657Z,21.80
2019-02-15T09:52:13.310Z,21.00
2019-02-15T09:54:41.734Z,22.10
2019-02-15T09:57:10.184Z,22.30
2019-02-15T09:59:38.615Z,22.50
2019-02-15T10:02:07.202Z,23.20
2019-02-15T10:04:35.676Z,23.30
2019-02-15T10:07:04.163Z,23.40
2019-02-15T10:09:32.618Z,23.40
2019-02-15T10:12:01.084Z,22.10
2019-02-15T10:14:29.528Z,21.60
2019-02-15T10:16:57.977Z,21.40
2019-02-15T10:19:26.430Z,21.90
2019-02-15T10:21:54.881Z,22.00
2019-02-15T10:24:23.383Z,18.90
2019-02-15T10:26:52.822Z,19.70
2019-02-15T10:29:21.283Z,18.90
2019-02-15T10:31:49.711Z,19.80
2019-02-15T10:34:18.161Z,18.70
2019-02-15T10:36:46.606Z,18.40
2019-02-15T10:39:15.067Z,17.60
2019-02-15T10:41:43.492Z,17.20
2019-02-15T10:44:11.954Z,17.60
2019-02-15T10:46:40.444Z,18.50
2019-02-15T10:49:08.891Z,18.20
2019-02-15T10:51:37.334Z,18.20
2019-02-15T10:54:05.799Z,18.60
2019-02-15T10:56:34.276Z,16.80
2019-02-15T10:59:02.720Z,16.10
2019-02-15T11:01:31.192Z,16.20
2019-02-15T11:03:59.626Z,16.20
2019-02-15T11:06:28.436Z,16.20
2019-02-15T11:08:58.405Z,16.80
2019-02-15T11:11:26.844Z,18.30
2019-02-15T11:13:55.331Z,16.20
2019-02-15T11:16:23.777Z,17.80
2019-02-15T11:18:52.191Z,16.80
2019-02-15T11:21:20.651Z,16.30
2019-02-15T11:23:49.071Z,16.40
2019-02-15T11:26:24.573Z,16.00
2019-02-15T11:28:47.667Z,15.40
2019-02-15T11:31:17.000Z,15.20
2019-02-15T11:33:45.736Z,16.10
2019-02-15T11:36:14.183Z,15.90
2019-02-15T11:38:42.608Z,15.30
2019-02-15T11:41:11.551Z,15.70
2019-02-15T11:43:40.005Z,15.00
2019-02-15T11:46:08.451Z,14.70
2019-02-15T11:48:36.911Z,15.40
2019-02-15T11:51:05.545Z,14.80
2019-02-15T11:53:33.956Z,15.40
2019-02-15T11:56:02.378Z,15.20
2019-02-15T11:58:30.834Z,15.10
2019-02-15T12:00:59.278Z,14.30
2019-02-15T12:03:27.717Z,15.20
2019-02-15T12:05:56.225Z,14.20
2019-02-15T12:08:24.695Z,14.40
2019-02-15T12:10:53.138Z,14.70
2019-02-15T12:13:21.588Z,14.40
2019-02-15T12:15:50.023Z,14.50
2019-02-15T12:18:18.459Z,16.00
2019-02-15T12:20:46.895Z,15.20
2019-02-15T12:23:15.374Z,15.50
2019-02-15T12:25:43.828Z,15.70
2019-02-15T12:28:12.263Z,15.00
2019-02-15T12:30:40.746Z,14.80
2019-02-15T12:33:09.195Z,14.90
2019-02-15T12:35:37.611Z,15.50
2019-02-15T12:38:06.165Z,15.50
2019-02-15T12:40:34.745Z,15.70
2019-02-15T12:43:03.207Z,16.00
2019-02-15T12:45:31.636Z,16.90
2019-02-15T12:48:00.090Z,16.10
2019-02-15T12:50:28.538Z,16.30
2019-02-15T12:52:57.055Z,15.80
2019-02-15T12:55:25.483Z,16.50
2019-02-15T12:57:53.928Z,16.60
2019-02-15T13:00:22.415Z,16.70
2019-02-15T13:02:50.843Z,17.00
2019-02-15T13:05:19.310Z,16.20
2019-02-15T13:07:47.770Z,16.90
2019-02-15T13:10:21.022Z,16.60
2019-02-15T13:12:49.467Z,16.60
2019-02-15T13:15:17.902Z,16.80
2019-02-15T13:17:46.312Z,17.40
2019-02-15T13:20:14.757Z,17.20
2019-02-15T13:22:43.199Z,16.40
2019-02-15T13:25:11.952Z,16.90
2019-02-15T13:27:40.399Z,17.00
2019-02-15T13:30:16.239Z,16.60
2019-02-15T13:32:44.734Z,16.30
2019-02-15T13:35:16.507Z,16.20
2019-02-15T13:37:44.931Z,16.10
2019-02-15T13:40:13.374Z,16.40
2019-02-15T13:42:41.867Z,17.10
2019-02-15T13:45:12.362Z,16.20
2019-02-15T13:47:40.782Z,16.80
2019-02-15T13:50:12.038Z,17.20
2019-02-15T13:52:40.475Z,17.10
2019-02-15T13:55:10.178Z,17.60
2019-02-15T13:57:38.751Z,17.80
2019-02-15T14:00:10.193Z,17.70
2019-02-15T14:02:38.611Z,17.50
2019-02-15T14:05:09.747Z,17.40
2019-02-15T14:07:38.362Z,17.20
2019-02-15T14:10:11.463Z,17.40
2019-02-15T14:12:40.084Z,17.60
2019-02-15T14:15:11.172Z,17.80
2019-02-15T14:17:44.863Z,17.80
2019-02-15T14:20:13.965Z,17.70
2019-02-15T14:22:42.407Z,17.00
2019-02-15T14:25:12.191Z,16.80
2019-02-15T14:27:40.633Z,16.90
2019-02-15T14:30:11.099Z,17.00
2019-02-15T14:32:39.719Z,17.20
2019-02-15T14:35:09.991Z,16.80
2019-02-15T14:37:38.513Z,17.10
2019-02-15T14:40:09.488Z,16.80
2019-02-15T14:42:37.934Z,16.80
2019-02-15T14:45:08.611Z,16.10
2019-02-15T14:47:37.055Z,15.90
2019-02-15T14:50:07.422Z,16.10
2019-02-15T14:52:35.899Z,15.70
2019-02-15T14:55:05.754Z,16.10
2019-02-15T14:57:34.220Z,16.20
2019-02-15T15:00:02.825Z,16.00
2019-02-15T15:02:31.427Z,16.10
2019-02-15T15:04:59.899Z,16.00
2019-02-15T15:07:28.333Z,15.90
2019-02-15T15:09:56.775Z,15.90
2019-02-15T15:12:25.289Z,15.70
2019-02-15T15:14:53.755Z,15.60
2019-02-15T15:17:22.197Z,15.70
2019-02-15T15:19:50.643Z,15.70
2019-02-15T15:22:19.062Z,15.90
2019-02-15T15:24:47.610Z,15.80
2019-02-15T15:27:17.696Z,15.80
2019-02-15T15:29:46.163Z,15.60
2019-02-15T15:32:14.650Z,15.50
2019-02-15T15:34:43.127Z,15.50
2019-02-15T15:39:40.464Z,15.60
2019-02-15T15:42:08.911Z,15.50
2019-02-15T15:44:37.382Z,15.40
2019-02-15T15:47:06.983Z,15.40
2019-02-15T15:49:35.419Z,15.30
2019-02-15T15:52:03.877Z,15.30
2019-02-15T15:54:32.319Z,17.00
2019-02-15T15:57:00.754Z,17.00
2019-02-15T15:59:29.174Z,17.00
2019-02-15T16:01:57.623Z,17.00
2019-02-15T16:04:26.055Z,17.00
2019-02-15T16:06:54.499Z,17.10
2019-02-15T16:09:22.996Z,17.40
2019-02-15T16:11:51.450Z,17.50
2019-02-15T16:14:19.903Z,17.50
2019-02-15T16:16:49.896Z,17.60
2019-02-15T16:19:18.321Z,17.70
2019-02-15T16:21:46.764Z,17.80
2019-02-15T16:24:15.187Z,17.70
2019-02-15T16:26:43.712Z,17.70
2019-02-15T16:29:13.921Z,17.70
2019-02-15T16:31:42.291Z,17.80
2019-02-15T16:34:10.714Z,17.80
2019-02-15T16:36:39.159Z,18.10
2019-02-15T16:39:07.850Z,18.30
2019-02-15T16:41:36.369Z,18.30
2019-02-15T16:44:04.948Z,18.40
2019-02-15T16:46:33.389Z,18.50
2019-02-15T16:49:01.918Z,52.80
2019-02-15T16:51:30.426Z,52.90
2019-02-15T16:53:58.879Z,53.00
2019-02-15T16:56:27.348Z,53.20
2019-02-15T16:58:55.777Z,53.00
2019-02-15T17:01:24.207Z,53.10
2019-02-15T17:03:52.656Z,53.00
2019-02-15T17:06:21.085Z,53.30
2019-02-15T17:08:49.513Z,53.10
2019-02-15T17:11:17.942Z,53.00
2019-02-15T17:13:46.394Z,53.50
2019-02-15T17:16:14.815Z,53.30
2019-02-15T17:18:51.518Z,53.40
2019-02-15T17:21:13.549Z,53.70
2019-02-15T17:23:42.015Z,53.60
2019-02-15T17:26:10.456Z,53.90
2019-02-15T17:28:38.916Z,54.20
2019-02-15T17:31:07.329Z,54.40
2019-02-15T17:33:35.781Z,54.60
2019-02-15T17:36:04.208Z,54.60
2019-02-15T17:38:32.657Z,54.80
2019-02-15T17:41:01.085Z,54.80
2019-02-15T17:43:29.527Z,54.70
2019-02-15T17:45:57.948Z,55.20
2019-02-15T17:48:26.399Z,55.50
2019-02-15T17:50:54.939Z,55.60
2019-02-15T17:53:23.363Z,55.80
2019-02-15T17:55:51.886Z,55.90
2019-02-15T17:58:20.291Z,56.30
2019-02-15T18:00:48.818Z,56.20
2019-02-15T18:03:17.265Z,56.10
2019-02-15T18:05:45.706Z,57.00
2019-02-15T18:08:14.123Z,57.40
2019-02-15T18:10:42.611Z,57.20
2019-02-15T18:13:12.676Z,57.40
2019-02-15T18:15:41.130Z,57.50
2019-02-15T18:18:09.555Z,57.50
2019-02-15T18:20:38.009Z,58.50
2019-02-15T18:23:06.430Z,59.00
2019-02-15T18:25:34.882Z,58.60
2019-02-15T18:28:03.324Z,59.00
2019-02-15T18:30:31.755Z,59.90
2019-02-15T18:33:00.194Z,59.60
2019-02-15T18:35:28.643Z,60.20
2019-02-15T18:37:57.157Z,60.20
2019-02-15T18:40:25.627Z,60.40
2019-02-15T18:42:54.063Z,60.40
2019-02-15T18:45:22.737Z,60.70
2019-02-15T18:47:51.349Z,60.70
2019-02-15T18:50:19.792Z,60.60
2019-02-15T18:52:48.321Z,60.70
2019-02-15T18:55:16.750Z,60.80
2019-02-15T18:57:45.202Z,60.70
2019-02-15T19:00:18.945Z,61.30
2019-02-15T19:02:49.358Z,61.50
2019-02-15T19:05:17.780Z,61.20
2019-02-15T19:07:46.220Z,61.50
2019-02-15T19:10:22.601Z,61.90
2019-02-15T19:12:52.093Z,61.70
2019-02-15T19:15:20.514Z,61.60
2019-02-15T19:17:49.043Z,61.90
2019-02-15T19:20:17.938Z,61.90
2019-02-15T19:22:46.736Z,61.90
2019-02-15T19:25:17.866Z,62.00
2019-02-15T19:27:46.352Z,62.10
2019-02-15T19:30:23.727Z,62.40
2019-02-15T19:32:52.158Z,62.50
2019-02-15T19:35:20.629Z,62.40
2019-02-15T19:37:49.143Z,62.80
2019-02-15T19:40:19.427Z,62.50
2019-02-15T19:42:49.817Z,62.90
2019-02-15T19:45:18.371Z,63.10
2019-02-15T19:47:47.107Z,63.20
2019-02-15T19:50:17.603Z,63.00
2019-02-15T19:52:48.080Z,62.80
2019-02-15T19:55:16.710Z,62.70
2019-02-15T19:57:45.141Z,63.40
2019-02-15T20:00:18.323Z,63.30
2019-02-15T20:02:47.094Z,63.90
2019-02-15T20:05:15.917Z,64.00
2019-02-15T20:07:44.344Z,64.20
2019-02-15T20:10:19.104Z,64.60
2019-02-15T20:12:47.555Z,64.30
2019-02-15T20:15:16.108Z,64.70
2019-02-15T20:17:44.600Z,64.60
2019-02-15T20:20:14.507Z,64.60
2019-02-15T20:22:42.990Z,64.40
2019-02-15T20:25:12.614Z,64.50
2019-02-15T20:27:41.066Z,64.60
2019-02-15T20:30:14.938Z,64.70
2019-02-15T20:32:43.455Z,64.30
2019-02-15T20:35:13.594Z,64.70
2019-02-15T20:37:42.287Z,64.70
2019-02-15T20:40:12.061Z,65.00
2019-02-15T20:42:40.495Z,65.60
2019-02-15T20:45:17.556Z,66.10
2019-02-15T20:47:46.016Z,66.10
2019-02-15T20:50:15.091Z,65.80
2019-02-15T20:52:43.534Z,66.00
2019-02-15T20:55:14.199Z,65.20
2019-02-15T20:57:42.675Z,65.30
2019-02-15T21:00:16.966Z,65.80
2019-02-15T21:02:45.525Z,66.20
2019-02-15T21:05:14.030Z,67.00
2019-02-15T21:07:42.482Z,67.50
2019-02-15T21:10:12.282Z,67.60
2019-02-15T21:12:41.015Z,67.20
2019-02-15T21:15:11.763Z,67.20
2019-02-15T21:17:40.219Z,67.20
2019-02-15T21:20:11.387Z,67.80
2019-02-15T21:22:39.892Z,68.30
2019-02-15T21:25:17.948Z,68.50
2019-02-15T21:27:46.392Z,68.20
2019-02-15T21:30:19.178Z,67.40
2019-02-15T21:32:47.735Z,67.50
2019-02-15T21:35:16.192Z,67.80
2019-02-15T21:38:04.048Z,67.70
2019-02-15T21:40:32.502Z,68.20
2019-02-15T21:43:00.930Z,68.30
2019-02-15T21:45:29.394Z,68.40
2019-02-15T21:47:57.830Z,68.40
2019-02-15T21:50:26.289Z,68.20
2019-02-15T21:52:54.731Z,68.10
2019-02-15T21:55:23.249Z,68.00
2019-02-15T21:58:00.796Z,67.80
2019-02-15T22:00:26.567Z,67.90
2019-02-15T22:02:55.107Z,68.20
2019-02-15T22:05:23.562Z,68.50
2019-02-15T22:07:51.988Z,68.30
2019-02-15T22:10:20.433Z,68.40
2019-02-15T22:12:48.894Z,68.00
2019-02-15T22:15:17.894Z,67.70
2019-02-15T22:17:46.370Z,67.90
2019-02-15T22:20:26.349Z,68.40
2019-02-15T22:22:48.437Z,68.90
2019-02-15T22:25:16.850Z,68.70
2019-02-15T22:27:45.387Z,69.40
2019-02-15T22:30:15.484Z,69.00
2019-02-15T22:32:43.962Z,69.20
2019-02-15T22:35:12.534Z,69.10
2019-02-15T22:37:41.019Z,69.40
2019-02-15T22:40:29.876Z,69.60
2019-02-15T22:43:01.426Z,69.50
2019-02-15T22:45:29.886Z,69.70
2019-02-15T22:47:58.335Z,68.90
2019-02-15T22:50:35.382Z,69.10
2019-02-15T22:52:57.230Z,69.00
2019-02-15T22:55:25.814Z,69.30
2019-02-15T22:57:54.266Z,69.80
2019-02-15T23:00:47.236Z,69.70
2019-02-15T23:03:17.253Z,69.30
2019-02-15T23:05:47.487Z,69.80
2019-02-15T23:08:17.080Z,70.40
2019-02-15T23:10:45.701Z,70.80
2019-02-15T23:13:14.287Z,70.80
2019-02-15T23:15:42.765Z,70.60
2019-02-15T23:18:11.281Z,70.90
2019-02-15T23:20:45.215Z,70.60
2019-02-15T23:23:09.902Z,70.40
2019-02-15T23:25:38.346Z,70.50
2019-02-15T23:28:06.797Z,70.40
2019-02-15T23:30:35.239Z,70.70
2019-02-15T23:33:03.751Z,70.80
2019-02-15T23:35:32.214Z,70.90
2019-02-15T23:38:00.670Z,70.90
2019-02-15T23:40:29.126Z,70.80
2019-02-15T23:42:57.587Z,71.50
2019-02-15T23:45:26.090Z,71.80
2019-02-15T23:47:54.619Z,71.60
2019-02-15T23:50:23.067Z,71.70
2019-02-15T23:52:51.561Z,72.00
2019-02-15T23:55:20.018Z,72.20
2019-02-15T23:57:48.432Z,71.90
